sensor_id;sensor_type;location;lat;lon;timestamp;P1;durP1;ratioP1;P2;durP2;ratioP2
9473;SDS011;8865;47.636;7.692;2023-08-30T00:00:57;3.47;;;3.13;;
9473;SDS011;8865;47.636;7.692;2023-08-30T00:03:23;4.07;;;3.03;;
9473;SDS011;8865;47.636;7.692;2023-08-30T00:05:49;3.60;;;3.30;;
9473;SDS011;8865;47.636;7.692;2023-08-30T00:08:15;3.70;;;3.40;;
9473;SDS011;8865;47.636;7.692;2023-08-30T00:10:45;2.97;;;2.77;;
9473;SDS011;8865;47.636;7.692;2023-08-30T00:13:12;4.50;;;3.07;;
9473;SDS011;8865;47.636;7.692;2023-08-30T00:15:38;5.33;;;3.40;;
9473;SDS011;8865;47.636;7.692;2023-08-30T00:18:04;3.37;;;3.10;;
9473;SDS011;8865;47.636;7.692;2023-08-30T00:20:30;3.27;;;2.97;;
9473;SDS011;8865;47.636;7.692;2023-08-30T00:22:56;5.90;;;3.00;;
9473;SDS011;8865;47.636;7.692;2023-08-30T00:25:22;3.30;;;3.00;;
9473;SDS011;8865;47.636;7.692;2023-08-30T00:27:48;3.43;;;3.13;;
9473;SDS011;8865;47.636;7.692;2023-08-30T00:30:14;3.57;;;2.90;;
9473;SDS011;8865;47.636;7.692;2023-08-30T00:32:40;5.33;;;2.90;;
9473;SDS011;8865;47.636;7.692;2023-08-30T00:35:06;3.57;;;2.87;;
9473;SDS011;8865;47.636;7.692;2023-08-30T00:37:32;3.30;;;3.10;;
9473;SDS011;8865;47.636;7.692;2023-08-30T00:39:58;3.20;;;2.90;;
9473;SDS011;8865;47.636;7.692;2023-08-30T00:42:25;4.70;;;3.00;;
9473;SDS011;8865;47.636;7.692;2023-08-30T00:44:51;4.93;;;3.07;;
9473;SDS011;8865;47.636;7.692;2023-08-30T00:47:17;4.70;;;3.30;;
9473;SDS011;8865;47.636;7.692;2023-08-30T00:49:43;4.50;;;3.40;;
9473;SDS011;8865;47.636;7.692;2023-08-30T00:52:09;3.60;;;3.30;;
9473;SDS011;8865;47.636;7.692;2023-08-30T00:54:37;4.37;;;3.50;;
9473;SDS011;8865;47.636;7.692;2023-08-30T00:57:04;3.37;;;3.13;;
9473;SDS011;8865;47.636;7.692;2023-08-30T00:59:32;3.33;;;3.03;;
9473;SDS011;8865;47.636;7.692;2023-08-30T01:01:59;3.63;;;3.27;;
9473;SDS011;8865;47.636;7.692;2023-08-30T01:04:29;7.10;;;3.60;;
9473;SDS011;8865;47.636;7.692;2023-08-30T01:06:55;3.70;;;3.40;;
9473;SDS011;8865;47.636;7.692;2023-08-30T01:09:22;3.43;;;3.13;;
9473;SDS011;8865;47.636;7.692;2023-08-30T01:11:50;4.30;;;3.10;;
9473;SDS011;8865;47.636;7.692;2023-08-30T01:17:07;3.30;;;3.00;;
9473;SDS011;8865;47.636;7.692;2023-08-30T01:22:16;3.63;;;3.17;;
9473;SDS011;8865;47.636;7.692;2023-08-30T01:27:31;4.67;;;3.20;;
9473;SDS011;8865;47.636;7.692;2023-08-30T01:30:02;5.80;;;3.30;;
9473;SDS011;8865;47.636;7.692;2023-08-30T01:32:30;3.87;;;3.20;;
9473;SDS011;8865;47.636;7.692;2023-08-30T01:34:59;3.30;;;3.00;;
9473;SDS011;8865;47.636;7.692;2023-08-30T01:37:26;3.47;;;3.20;;
9473;SDS011;8865;47.636;7.692;2023-08-30T01:39:54;3.60;;;2.90;;
9473;SDS011;8865;47.636;7.692;2023-08-30T01:42:23;3.10;;;2.80;;
9473;SDS011;8865;47.636;7.692;2023-08-30T01:44:51;4.43;;;2.87;;
9473;SDS011;8865;47.636;7.692;2023-08-30T01:47:20;3.73;;;2.90;;
9473;SDS011;8865;47.636;7.692;2023-08-30T01:49:47;3.33;;;2.80;;
9473;SDS011;8865;47.636;7.692;2023-08-30T01:52:14;3.37;;;2.90;;
9473;SDS011;8865;47.636;7.692;2023-08-30T01:54:41;3.83;;;2.77;;
9473;SDS011;8865;47.636;7.692;2023-08-30T01:57:10;3.50;;;3.20;;
9473;SDS011;8865;47.636;7.692;2023-08-30T01:59:36;3.07;;;2.77;;
9473;SDS011;8865;47.636;7.692;2023-08-30T02:02:02;2.97;;;2.77;;
9473;SDS011;8865;47.636;7.692;2023-08-30T02:04:29;3.33;;;3.00;;
9473;SDS011;8865;47.636;7.692;2023-08-30T02:06:58;4.23;;;2.97;;
9473;SDS011;8865;47.636;7.692;2023-08-30T02:09:29;4.07;;;2.90;;
9473;SDS011;8865;47.636;7.692;2023-08-30T02:12:06;4.17;;;3.07;;
9473;SDS011;8865;47.636;7.692;2023-08-30T02:14:41;5.13;;;3.10;;
9473;SDS011;8865;47.636;7.692;2023-08-30T02:17:14;3.83;;;3.07;;
9473;SDS011;8865;47.636;7.692;2023-08-30T02:19:44;3.13;;;2.90;;
9473;SDS011;8865;47.636;7.692;2023-08-30T02:22:11;4.47;;;3.40;;
9473;SDS011;8865;47.636;7.692;2023-08-30T02:24:38;3.83;;;3.00;;
9473;SDS011;8865;47.636;7.692;2023-08-30T02:27:04;3.37;;;3.07;;
9473;SDS011;8865;47.636;7.692;2023-08-30T02:29:30;3.77;;;2.90;;
9473;SDS011;8865;47.636;7.692;2023-08-30T02:31:56;3.20;;;2.97;;
9473;SDS011;8865;47.636;7.692;2023-08-30T02:34:22;3.23;;;2.93;;
9473;SDS011;8865;47.636;7.692;2023-08-30T02:36:48;3.63;;;3.37;;
9473;SDS011;8865;47.636;7.692;2023-08-30T02:39:14;3.53;;;3.23;;
9473;SDS011;8865;47.636;7.692;2023-08-30T02:41:43;4.20;;;3.20;;
9473;SDS011;8865;47.636;7.692;2023-08-30T02:44:10;4.07;;;3.37;;
9473;SDS011;8865;47.636;7.692;2023-08-30T02:46:37;5.33;;;2.83;;
9473;SDS011;8865;47.636;7.692;2023-08-30T02:49:07;3.57;;;3.00;;
9473;SDS011;8865;47.636;7.692;2023-08-30T02:51:34;3.53;;;3.20;;
9473;SDS011;8865;47.636;7.692;2023-08-30T02:54:00;3.30;;;2.97;;
9473;SDS011;8865;47.636;7.692;2023-08-30T02:56:27;4.70;;;3.10;;
9473;SDS011;8865;47.636;7.692;2023-08-30T02:58:53;3.70;;;3.40;;
9473;SDS011;8865;47.636;7.692;2023-08-30T03:01:18;4.00;;;3.33;;
9473;SDS011;8865;47.636;7.692;2023-08-30T03:03:45;5.30;;;3.47;;
9473;SDS011;8865;47.636;7.692;2023-08-30T03:06:12;3.60;;;3.33;;
9473;SDS011;8865;47.636;7.692;2023-08-30T03:08:39;3.60;;;3.30;;
9473;SDS011;8865;47.636;7.692;2023-08-30T03:11:09;3.33;;;3.03;;
9473;SDS011;8865;47.636;7.692;2023-08-30T03:13:36;3.60;;;3.30;;
9473;SDS011;8865;47.636;7.692;2023-08-30T03:16:12;4.90;;;3.57;;
9473;SDS011;8865;47.636;7.692;2023-08-30T03:18:39;3.73;;;3.43;;
9473;SDS011;8865;47.636;7.692;2023-08-30T03:21:06;3.70;;;3.40;;
9473;SDS011;8865;47.636;7.692;2023-08-30T03:23:33;4.83;;;3.70;;
9473;SDS011;8865;47.636;7.692;2023-08-30T03:26:14;3.90;;;3.60;;
9473;SDS011;8865;47.636;7.692;2023-08-30T03:28:41;5.77;;;3.83;;
9473;SDS011;8865;47.636;7.692;2023-08-30T03:31:14;4.10;;;3.70;;
9473;SDS011;8865;47.636;7.692;2023-08-30T03:33:41;4.77;;;3.63;;
9473;SDS011;8865;47.636;7.692;2023-08-30T03:36:09;4.10;;;3.53;;
9473;SDS011;8865;47.636;7.692;2023-08-30T03:38:37;3.60;;;3.30;;
9473;SDS011;8865;47.636;7.692;2023-08-30T03:41:03;4.10;;;3.00;;
9473;SDS011;8865;47.636;7.692;2023-08-30T03:43:30;3.40;;;3.10;;
9473;SDS011;8865;47.636;7.692;2023-08-30T03:45:57;3.20;;;3.00;;
9473;SDS011;8865;47.636;7.692;2023-08-30T03:48:25;3.73;;;3.10;;
9473;SDS011;8865;47.636;7.692;2023-08-30T03:50:51;3.53;;;3.23;;
9473;SDS011;8865;47.636;7.692;2023-08-30T03:53:17;3.60;;;3.30;;
9473;SDS011;8865;47.636;7.692;2023-08-30T03:55:43;3.90;;;3.50;;
9473;SDS011;8865;47.636;7.692;2023-08-30T03:58:09;3.83;;;3.30;;
9473;SDS011;8865;47.636;7.692;2023-08-30T04:00:39;3.23;;;3.03;;
9473;SDS011;8865;47.636;7.692;2023-08-30T04:03:07;5.17;;;3.57;;
9473;SDS011;8865;47.636;7.692;2023-08-30T04:05:37;3.43;;;3.20;;
9473;SDS011;8865;47.636;7.692;2023-08-30T04:08:03;3.83;;;2.90;;
9473;SDS011;8865;47.636;7.692;2023-08-30T04:10:40;3.87;;;3.57;;
9473;SDS011;8865;47.636;7.692;2023-08-30T04:13:07;4.30;;;3.30;;
9473;SDS011;8865;47.636;7.692;2023-08-30T04:15:37;3.90;;;3.30;;
9473;SDS011;8865;47.636;7.692;2023-08-30T04:18:04;4.83;;;3.53;;
9473;SDS011;8865;47.636;7.692;2023-08-30T04:20:31;3.60;;;3.30;;
9473;SDS011;8865;47.636;7.692;2023-08-30T04:22:58;5.40;;;3.57;;
9473;SDS011;8865;47.636;7.692;2023-08-30T04:25:29;3.57;;;3.33;;
9473;SDS011;8865;47.636;7.692;2023-08-30T04:27:57;4.67;;;3.30;;
9473;SDS011;8865;47.636;7.692;2023-08-30T04:30:23;4.97;;;3.20;;
9473;SDS011;8865;47.636;7.692;2023-08-30T04:32:49;3.50;;;3.20;;
9473;SDS011;8865;47.636;7.692;2023-08-30T04:35:15;3.23;;;3.03;;
9473;SDS011;8865;47.636;7.692;2023-08-30T04:37:41;3.43;;;3.10;;
9473;SDS011;8865;47.636;7.692;2023-08-30T04:40:08;3.70;;;3.40;;
9473;SDS011;8865;47.636;7.692;2023-08-30T04:42:35;3.50;;;3.20;;
9473;SDS011;8865;47.636;7.692;2023-08-30T04:45:02;3.80;;;3.50;;
9473;SDS011;8865;47.636;7.692;2023-08-30T04:47:31;4.83;;;3.27;;
9473;SDS011;8865;47.636;7.692;2023-08-30T04:49:58;3.50;;;3.20;;
9473;SDS011;8865;47.636;7.692;2023-08-30T04:52:24;4.20;;;3.50;;
9473;SDS011;8865;47.636;7.692;2023-08-30T04:54:51;3.83;;;3.53;;
9473;SDS011;8865;47.636;7.692;2023-08-30T04:57:17;6.27;;;4.93;;
9473;SDS011;8865;47.636;7.692;2023-08-30T04:59:44;7.17;;;4.17;;
9473;SDS011;8865;47.636;7.692;2023-08-30T05:02:11;3.70;;;3.40;;
9473;SDS011;8865;47.636;7.692;2023-08-30T05:04:37;3.93;;;3.27;;
9473;SDS011;8865;47.636;7.692;2023-08-30T05:07:03;3.87;;;3.57;;
9473;SDS011;8865;47.636;7.692;2023-08-30T05:09:29;5.07;;;3.60;;
9473;SDS011;8865;47.636;7.692;2023-08-30T05:11:56;4.10;;;3.57;;
9473;SDS011;8865;47.636;7.692;2023-08-30T05:14:22;4.20;;;3.90;;
9473;SDS011;8865;47.636;7.692;2023-08-30T05:16:49;4.93;;;3.70;;
9473;SDS011;8865;47.636;7.692;2023-08-30T05:19:15;4.50;;;3.67;;
9473;SDS011;8865;47.636;7.692;2023-08-30T05:21:44;3.90;;;3.43;;
9473;SDS011;8865;47.636;7.692;2023-08-30T05:24:10;4.43;;;3.77;;
9473;SDS011;8865;47.636;7.692;2023-08-30T05:26:36;3.87;;;3.47;;
9473;SDS011;8865;47.636;7.692;2023-08-30T05:29:03;5.43;;;3.40;;
9473;SDS011;8865;47.636;7.692;2023-08-30T05:31:29;4.43;;;3.17;;
9473;SDS011;8865;47.636;7.692;2023-08-30T05:33:55;3.93;;;3.50;;
9473;SDS011;8865;47.636;7.692;2023-08-30T05:36:21;5.23;;;3.00;;
9473;SDS011;8865;47.636;7.692;2023-08-30T05:38:47;3.50;;;3.20;;
9473;SDS011;8865;47.636;7.692;2023-08-30T05:41:13;3.30;;;2.93;;
9473;SDS011;8865;47.636;7.692;2023-08-30T05:43:39;3.77;;;2.90;;
9473;SDS011;8865;47.636;7.692;2023-08-30T05:46:05;3.27;;;3.07;;
9473;SDS011;8865;47.636;7.692;2023-08-30T05:48:37;4.97;;;2.90;;
9473;SDS011;8865;47.636;7.692;2023-08-30T05:51:03;4.00;;;2.80;;
9473;SDS011;8865;47.636;7.692;2023-08-30T05:53:29;3.50;;;3.20;;
9473;SDS011;8865;47.636;7.692;2023-08-30T05:55:55;3.40;;;3.10;;
9473;SDS011;8865;47.636;7.692;2023-08-30T05:58:21;2.93;;;2.73;;
9473;SDS011;8865;47.636;7.692;2023-08-30T06:00:47;5.27;;;2.70;;
9473;SDS011;8865;47.636;7.692;2023-08-30T06:03:13;3.37;;;3.00;;
9473;SDS011;8865;47.636;7.692;2023-08-30T06:05:39;3.23;;;2.93;;
9473;SDS011;8865;47.636;7.692;2023-08-30T06:08:05;4.27;;;2.97;;
9473;SDS011;8865;47.636;7.692;2023-08-30T06:10:31;3.20;;;3.00;;
9473;SDS011;8865;47.636;7.692;2023-08-30T06:12:57;3.60;;;3.30;;
9473;SDS011;8865;47.636;7.692;2023-08-30T06:15:23;3.47;;;3.10;;
9473;SDS011;8865;47.636;7.692;2023-08-30T06:17:49;3.30;;;2.93;;
9473;SDS011;8865;47.636;7.692;2023-08-30T06:20:15;3.13;;;2.80;;
9473;SDS011;8865;47.636;7.692;2023-08-30T06:22:42;3.20;;;3.00;;
9473;SDS011;8865;47.636;7.692;2023-08-30T06:25:08;4.03;;;3.30;;
9473;SDS011;8865;47.636;7.692;2023-08-30T06:27:54;3.70;;;3.40;;
9473;SDS011;8865;47.636;7.692;2023-08-30T06:30:23;4.70;;;3.30;;
9473;SDS011;8865;47.636;7.692;2023-08-30T06:32:49;5.13;;;3.47;;
9473;SDS011;8865;47.636;7.692;2023-08-30T06:35:15;4.30;;;3.67;;
9473;SDS011;8865;47.636;7.692;2023-08-30T06:37:41;5.07;;;3.70;;
9473;SDS011;8865;47.636;7.692;2023-08-30T06:40:07;5.50;;;3.47;;
9473;SDS011;8865;47.636;7.692;2023-08-30T06:42:34;7.27;;;3.10;;
9473;SDS011;8865;47.636;7.692;2023-08-30T06:45:00;4.63;;;3.53;;
9473;SDS011;8865;47.636;7.692;2023-08-30T06:47:27;5.37;;;3.60;;
9473;SDS011;8865;47.636;7.692;2023-08-30T06:49:53;3.70;;;3.30;;
9473;SDS011;8865;47.636;7.692;2023-08-30T06:52:19;5.00;;;3.20;;
9473;SDS011;8865;47.636;7.692;2023-08-30T06:54:45;3.40;;;3.10;;
9473;SDS011;8865;47.636;7.692;2023-08-30T06:57:11;3.37;;;3.00;;
9473;SDS011;8865;47.636;7.692;2023-08-30T06:59:37;3.70;;;3.33;;
9473;SDS011;8865;47.636;7.692;2023-08-30T07:02:03;3.93;;;3.63;;
9473;SDS011;8865;47.636;7.692;2023-08-30T07:04:29;4.67;;;3.53;;
9473;SDS011;8865;47.636;7.692;2023-08-30T07:06:55;5.03;;;3.57;;
9473;SDS011;8865;47.636;7.692;2023-08-30T07:09:21;4.93;;;3.40;;
9473;SDS011;8865;47.636;7.692;2023-08-30T07:11:57;3.83;;;3.53;;
9473;SDS011;8865;47.636;7.692;2023-08-30T07:14:23;3.83;;;3.53;;
9473;SDS011;8865;47.636;7.692;2023-08-30T07:16:50;3.73;;;3.43;;
9473;SDS011;8865;47.636;7.692;2023-08-30T07:19:16;3.33;;;3.13;;
9473;SDS011;8865;47.636;7.692;2023-08-30T07:21:42;3.03;;;2.83;;
9473;SDS011;8865;47.636;7.692;2023-08-30T07:24:08;3.87;;;3.20;;
9473;SDS011;8865;47.636;7.692;2023-08-30T07:26:35;5.40;;;3.07;;
9473;SDS011;8865;47.636;7.692;2023-08-30T07:29:01;3.47;;;3.20;;
9473;SDS011;8865;47.636;7.692;2023-08-30T07:31:31;5.63;;;3.47;;
9473;SDS011;8865;47.636;7.692;2023-08-30T07:33:57;3.63;;;3.40;;
9473;SDS011;8865;47.636;7.692;2023-08-30T07:36:25;3.40;;;3.10;;
9473;SDS011;8865;47.636;7.692;2023-08-30T07:38:52;4.47;;;2.90;;
9473;SDS011;8865;47.636;7.692;2023-08-30T07:41:18;3.47;;;3.17;;
9473;SDS011;8865;47.636;7.692;2023-08-30T07:43:44;3.83;;;3.53;;
9473;SDS011;8865;47.636;7.692;2023-08-30T07:46:10;3.10;;;2.90;;
9473;SDS011;8865;47.636;7.692;2023-08-30T07:48:36;3.60;;;2.57;;
9473;SDS011;8865;47.636;7.692;2023-08-30T07:51:02;3.20;;;2.90;;
9473;SDS011;8865;47.636;7.692;2023-08-30T07:53:28;3.27;;;2.70;;
9473;SDS011;8865;47.636;7.692;2023-08-30T07:55:54;4.97;;;2.80;;
9473;SDS011;8865;47.636;7.692;2023-08-30T07:58:20;4.97;;;3.30;;
9473;SDS011;8865;47.636;7.692;2023-08-30T08:00:50;3.67;;;3.07;;
9473;SDS011;8865;47.636;7.692;2023-08-30T08:03:17;4.30;;;3.10;;
9473;SDS011;8865;47.636;7.692;2023-08-30T08:05:43;3.80;;;2.57;;
9473;SDS011;8865;47.636;7.692;2023-08-30T08:08:09;3.57;;;3.27;;
9473;SDS011;8865;47.636;7.692;2023-08-30T08:10:36;3.20;;;3.00;;
9473;SDS011;8865;47.636;7.692;2023-08-30T08:13:03;3.03;;;2.83;;
9473;SDS011;8865;47.636;7.692;2023-08-30T08:15:30;3.60;;;3.30;;
9473;SDS011;8865;47.636;7.692;2023-08-30T08:18:00;3.60;;;3.30;;
9473;SDS011;8865;47.636;7.692;2023-08-30T08:20:26;3.73;;;3.13;;
9473;SDS011;8865;47.636;7.692;2023-08-30T08:22:54;3.90;;;3.27;;
9473;SDS011;8865;47.636;7.692;2023-08-30T08:25:20;3.77;;;3.13;;
9473;SDS011;8865;47.636;7.692;2023-08-30T08:27:47;3.13;;;2.93;;
9473;SDS011;8865;47.636;7.692;2023-08-30T08:30:13;3.17;;;2.97;;
9473;SDS011;8865;47.636;7.692;2023-08-30T08:32:40;3.40;;;3.07;;
9473;SDS011;8865;47.636;7.692;2023-08-30T08:35:06;3.37;;;2.83;;
9473;SDS011;8865;47.636;7.692;2023-08-30T08:37:32;3.33;;;3.03;;
9473;SDS011;8865;47.636;7.692;2023-08-30T08:39:58;3.67;;;3.37;;
9473;SDS011;8865;47.636;7.692;2023-08-30T08:42:24;4.93;;;3.17;;
9473;SDS011;8865;47.636;7.692;2023-08-30T08:44:53;3.00;;;2.80;;
9473;SDS011;8865;47.636;7.692;2023-08-30T08:47:22;3.10;;;2.80;;
9473;SDS011;8865;47.636;7.692;2023-08-30T08:49:50;3.83;;;2.87;;
9473;SDS011;8865;47.636;7.692;2023-08-30T08:52:16;3.13;;;2.80;;
9473;SDS011;8865;47.636;7.692;2023-08-30T08:54:43;2.30;;;2.10;;
9473;SDS011;8865;47.636;7.692;2023-08-30T08:57:09;3.07;;;2.37;;
9473;SDS011;8865;47.636;7.692;2023-08-30T08:59:36;2.87;;;2.40;;
9473;SDS011;8865;47.636;7.692;2023-08-30T09:02:02;2.80;;;2.50;;
9473;SDS011;8865;47.636;7.692;2023-08-30T09:04:32;2.70;;;2.50;;
9473;SDS011;8865;47.636;7.692;2023-08-30T09:06:58;2.67;;;2.47;;
9473;SDS011;8865;47.636;7.692;2023-08-30T09:09:26;2.97;;;2.53;;
9473;SDS011;8865;47.636;7.692;2023-08-30T09:11:52;2.60;;;2.40;;
9473;SDS011;8865;47.636;7.692;2023-08-30T09:14:18;3.07;;;2.43;;
9473;SDS011;8865;47.636;7.692;2023-08-30T09:16:55;2.50;;;2.30;;
9473;SDS011;8865;47.636;7.692;2023-08-30T09:19:21;4.13;;;2.60;;
9473;SDS011;8865;47.636;7.692;2023-08-30T09:21:51;2.33;;;2.17;;
9473;SDS011;8865;47.636;7.692;2023-08-30T09:24:18;2.93;;;2.37;;
9473;SDS011;8865;47.636;7.692;2023-08-30T09:26:51;3.47;;;2.20;;
9473;SDS011;8865;47.636;7.692;2023-08-30T09:29:19;2.10;;;2.00;;
9473;SDS011;8865;47.636;7.692;2023-08-30T09:31:50;1.80;;;1.70;;
9473;SDS011;8865;47.636;7.692;2023-08-30T09:34:21;2.03;;;1.93;;
9473;SDS011;8865;47.636;7.692;2023-08-30T09:36:48;2.80;;;2.23;;
9473;SDS011;8865;47.636;7.692;2023-08-30T09:39:15;2.83;;;2.63;;
9473;SDS011;8865;47.636;7.692;2023-08-30T09:41:42;5.50;;;5.00;;
9473;SDS011;8865;47.636;7.692;2023-08-30T09:44:19;2.27;;;2.07;;
9473;SDS011;8865;47.636;7.692;2023-08-30T09:49:15;2.50;;;2.00;;
9473;SDS011;8865;47.636;7.692;2023-08-30T09:51:47;1.80;;;1.70;;
9473;SDS011;8865;47.636;7.692;2023-08-30T09:54:15;2.17;;;1.73;;
9473;SDS011;8865;47.636;7.692;2023-08-30T09:56:43;3.37;;;1.90;;
9473;SDS011;8865;47.636;7.692;2023-08-30T09:59:13;2.30;;;1.80;;
9473;SDS011;8865;47.636;7.692;2023-08-30T10:01:41;2.70;;;1.90;;
9473;SDS011;8865;47.636;7.692;2023-08-30T10:04:09;1.97;;;1.87;;
9473;SDS011;8865;47.636;7.692;2023-08-30T10:06:38;1.80;;;1.70;;
9473;SDS011;8865;47.636;7.692;2023-08-30T10:09:05;1.97;;;1.80;;
9473;SDS011;8865;47.636;7.692;2023-08-30T10:11:37;1.70;;;1.60;;
9473;SDS011;8865;47.636;7.692;2023-08-30T10:14:04;2.40;;;1.77;;
9473;SDS011;8865;47.636;7.692;2023-08-30T10:16:49;2.28;;;1.63;;
9473;SDS011;8865;47.636;7.692;2023-08-30T10:19:23;2.80;;;2.00;;
9473;SDS011;8865;47.636;7.692;2023-08-30T10:22:06;2.00;;;1.85;;
9473;SDS011;8865;47.636;7.692;2023-08-30T10:24:48;1.85;;;1.67;;
9473;SDS011;8865;47.636;7.692;2023-08-30T10:27:30;2.50;;;2.13;;
9473;SDS011;8865;47.636;7.692;2023-08-30T10:29:59;2.15;;;1.80;;
9473;SDS011;8865;47.636;7.692;2023-08-30T10:32:27;3.10;;;2.17;;
9473;SDS011;8865;47.636;7.692;2023-08-30T10:34:53;1.90;;;1.70;;
9473;SDS011;8865;47.636;7.692;2023-08-30T10:37:23;2.00;;;1.63;;
9473;SDS011;8865;47.636;7.692;2023-08-30T10:39:49;2.10;;;1.92;;
9473;SDS011;8865;47.636;7.692;2023-08-30T10:42:16;1.88;;;1.77;;
9473;SDS011;8865;47.636;7.692;2023-08-30T10:47:18;2.60;;;1.80;;
9473;SDS011;8865;47.636;7.692;2023-08-30T10:49:57;1.98;;;1.80;;
9473;SDS011;8865;47.636;7.692;2023-08-30T10:52:25;2.30;;;2.10;;
9473;SDS011;8865;47.636;7.692;2023-08-30T10:55:03;4.68;;;2.10;;
9473;SDS011;8865;47.636;7.692;2023-08-30T10:57:30;2.67;;;2.15;;
9473;SDS011;8865;47.636;7.692;2023-08-30T11:02:47;3.75;;;2.20;;
9473;SDS011;8865;47.636;7.692;2023-08-30T11:05:15;2.20;;;1.77;;
9473;SDS011;8865;47.636;7.692;2023-08-30T11:07:43;1.73;;;1.50;;
9473;SDS011;8865;47.636;7.692;2023-08-30T11:10:09;2.55;;;1.60;;
9473;SDS011;8865;47.636;7.692;2023-08-30T11:12:35;3.25;;;1.90;;
9473;SDS011;8865;47.636;7.692;2023-08-30T11:15:02;1.83;;;1.73;;
9473;SDS011;8865;47.636;7.692;2023-08-30T11:17:28;1.85;;;1.75;;
9473;SDS011;8865;47.636;7.692;2023-08-30T11:20:04;1.83;;;1.60;;
9473;SDS011;8865;47.636;7.692;2023-08-30T11:22:44;2.13;;;1.52;;
9473;SDS011;8865;47.636;7.692;2023-08-30T11:25:12;2.50;;;1.60;;
9473;SDS011;8865;47.636;7.692;2023-08-30T11:27:39;2.35;;;1.63;;
9473;SDS011;8865;47.636;7.692;2023-08-30T11:30:06;2.25;;;1.77;;
9473;SDS011;8865;47.636;7.692;2023-08-30T11:32:34;1.40;;;1.30;;
9473;SDS011;8865;47.636;7.692;2023-08-30T11:35:01;1.48;;;1.30;;
9473;SDS011;8865;47.636;7.692;2023-08-30T11:37:28;1.73;;;1.17;;
9473;SDS011;8865;47.636;7.692;2023-08-30T11:39:55;2.22;;;1.35;;
9473;SDS011;8865;47.636;7.692;2023-08-30T11:42:21;2.42;;;1.40;;
9473;SDS011;8865;47.636;7.692;2023-08-30T11:44:49;1.35;;;1.25;;
9473;SDS011;8865;47.636;7.692;2023-08-30T11:47:34;1.10;;;1.00;;
9473;SDS011;8865;47.636;7.692;2023-08-30T11:50:00;1.48;;;1.25;;
9473;SDS011;8865;47.636;7.692;2023-08-30T11:52:26;1.42;;;1.33;;
9473;SDS011;8865;47.636;7.692;2023-08-30T11:54:53;1.45;;;1.20;;
9473;SDS011;8865;47.636;7.692;2023-08-30T11:57:20;1.40;;;1.30;;
9473;SDS011;8865;47.636;7.692;2023-08-30T11:59:49;2.10;;;1.40;;
9473;SDS011;8865;47.636;7.692;2023-08-30T12:02:16;1.63;;;1.40;;
9473;SDS011;8865;47.636;7.692;2023-08-30T12:04:46;1.45;;;1.35;;
9473;SDS011;8865;47.636;7.692;2023-08-30T12:07:22;1.48;;;1.30;;
9473;SDS011;8865;47.636;7.692;2023-08-30T12:09:49;1.33;;;1.00;;
9473;SDS011;8865;47.636;7.692;2023-08-30T12:12:15;1.40;;;1.10;;
9473;SDS011;8865;47.636;7.692;2023-08-30T12:14:41;1.15;;;1.00;;
9473;SDS011;8865;47.636;7.692;2023-08-30T12:17:08;1.23;;;1.13;;
9473;SDS011;8865;47.636;7.692;2023-08-30T12:19:37;1.35;;;1.25;;
9473;SDS011;8865;47.636;7.692;2023-08-30T12:22:06;1.25;;;1.00;;
9473;SDS011;8865;47.636;7.692;2023-08-30T12:24:42;1.88;;;1.27;;
9473;SDS011;8865;47.636;7.692;2023-08-30T12:27:12;2.22;;;1.17;;
9473;SDS011;8865;47.636;7.692;2023-08-30T12:29:39;1.73;;;1.10;;
9473;SDS011;8865;47.636;7.692;2023-08-30T12:32:06;1.33;;;1.23;;
9473;SDS011;8865;47.636;7.692;2023-08-30T12:34:33;1.23;;;1.10;;
9473;SDS011;8865;47.636;7.692;2023-08-30T12:36:59;1.77;;;1.00;;
9473;SDS011;8865;47.636;7.692;2023-08-30T12:39:25;1.60;;;1.00;;
9473;SDS011;8865;47.636;7.692;2023-08-30T12:41:51;2.28;;;1.10;;
9473;SDS011;8865;47.636;7.692;2023-08-30T12:44:17;1.20;;;1.10;;
9473;SDS011;8865;47.636;7.692;2023-08-30T12:46:43;2.13;;;1.20;;
9473;SDS011;8865;47.636;7.692;2023-08-30T12:49:10;0.88;;;0.85;;
9473;SDS011;8865;47.636;7.692;2023-08-30T12:51:36;2.25;;;1.15;;
9473;SDS011;8865;47.636;7.692;2023-08-30T12:54:02;1.70;;;1.10;;
9473;SDS011;8865;47.636;7.692;2023-08-30T12:56:28;1.83;;;1.17;;
9473;SDS011;8865;47.636;7.692;2023-08-30T12:58:54;1.58;;;1.13;;
9473;SDS011;8865;47.636;7.692;2023-08-30T13:01:20;2.35;;;1.30;;
9473;SDS011;8865;47.636;7.692;2023-08-30T13:03:46;1.08;;;0.93;;
9473;SDS011;8865;47.636;7.692;2023-08-30T13:06:12;2.45;;;1.13;;
9473;SDS011;8865;47.636;7.692;2023-08-30T13:08:38;1.05;;;0.98;;
9473;SDS011;8865;47.636;7.692;2023-08-30T13:11:04;1.98;;;1.00;;
9473;SDS011;8865;47.636;7.692;2023-08-30T13:13:30;1.95;;;1.00;;
9473;SDS011;8865;47.636;7.692;2023-08-30T13:15:56;1.13;;;0.90;;
9473;SDS011;8865;47.636;7.692;2023-08-30T13:18:22;1.10;;;1.00;;
9473;SDS011;8865;47.636;7.692;2023-08-30T13:20:48;0.95;;;0.90;;
9473;SDS011;8865;47.636;7.692;2023-08-30T13:23:14;2.22;;;1.10;;
9473;SDS011;8865;47.636;7.692;2023-08-30T13:25:41;1.50;;;1.13;;
9473;SDS011;8865;47.636;7.692;2023-08-30T13:28:07;1.67;;;1.23;;
9473;SDS011;8865;47.636;7.692;2023-08-30T13:30:33;2.28;;;1.20;;
9473;SDS011;8865;47.636;7.692;2023-08-30T13:32:59;1.17;;;1.08;;
9473;SDS011;8865;47.636;7.692;2023-08-30T13:35:26;2.67;;;1.10;;
9473;SDS011;8865;47.636;7.692;2023-08-30T13:37:52;1.30;;;1.20;;
9473;SDS011;8865;47.636;7.692;2023-08-30T13:40:18;1.17;;;1.10;;
9473;SDS011;8865;47.636;7.692;2023-08-30T13:42:44;3.42;;;1.25;;
9473;SDS011;8865;47.636;7.692;2023-08-30T13:45:10;5.35;;;1.35;;
9473;SDS011;8865;47.636;7.692;2023-08-30T13:47:37;3.60;;;1.58;;
9473;SDS011;8865;47.636;7.692;2023-08-30T13:50:03;2.03;;;1.10;;
9473;SDS011;8865;47.636;7.692;2023-08-30T13:52:29;9.57;;;1.92;;
9473;SDS011;8865;47.636;7.692;2023-08-30T13:54:56;1.17;;;1.02;;
9473;SDS011;8865;47.636;7.692;2023-08-30T13:57:22;1.17;;;1.08;;
9473;SDS011;8865;47.636;7.692;2023-08-30T13:59:48;1.83;;;1.10;;
9473;SDS011;8865;47.636;7.692;2023-08-30T14:02:14;1.90;;;1.05;;
9473;SDS011;8865;47.636;7.692;2023-08-30T14:04:40;1.80;;;1.10;;
9473;SDS011;8865;47.636;7.692;2023-08-30T14:07:06;1.23;;;1.13;;
9473;SDS011;8865;47.636;7.692;2023-08-30T14:09:32;4.47;;;1.20;;
9473;SDS011;8865;47.636;7.692;2023-08-30T14:11:58;2.47;;;1.05;;
9473;SDS011;8865;47.636;7.692;2023-08-30T14:14:24;2.28;;;1.15;;
9473;SDS011;8865;47.636;7.692;2023-08-30T14:16:50;2.08;;;1.20;;
9473;SDS011;8865;47.636;7.692;2023-08-30T14:19:16;1.05;;;0.95;;
9473;SDS011;8865;47.636;7.692;2023-08-30T14:21:43;2.03;;;1.42;;
9473;SDS011;8865;47.636;7.692;2023-08-30T14:24:09;2.38;;;1.20;;
9473;SDS011;8865;47.636;7.692;2023-08-30T14:26:35;2.72;;;1.20;;
9473;SDS011;8865;47.636;7.692;2023-08-30T14:29:01;2.55;;;1.30;;
9473;SDS011;8865;47.636;7.692;2023-08-30T14:31:27;1.33;;;1.20;;
9473;SDS011;8865;47.636;7.692;2023-08-30T14:33:55;2.38;;;1.50;;
9473;SDS011;8865;47.636;7.692;2023-08-30T14:36:24;1.42;;;1.30;;
9473;SDS011;8865;47.636;7.692;2023-08-30T14:38:50;1.27;;;1.17;;
9473;SDS011;8865;47.636;7.692;2023-08-30T14:41:17;1.52;;;1.33;;
9473;SDS011;8865;47.636;7.692;2023-08-30T14:43:43;1.30;;;1.20;;
9473;SDS011;8865;47.636;7.692;2023-08-30T14:46:09;1.30;;;1.20;;
9473;SDS011;8865;47.636;7.692;2023-08-30T14:48:35;1.48;;;1.20;;
9473;SDS011;8865;47.636;7.692;2023-08-30T14:51:01;1.80;;;1.52;;
9473;SDS011;8865;47.636;7.692;2023-08-30T14:53:30;1.25;;;1.15;;
9473;SDS011;8865;47.636;7.692;2023-08-30T14:55:56;1.30;;;1.20;;
9473;SDS011;8865;47.636;7.692;2023-08-30T14:58:22;1.27;;;1.15;;
9473;SDS011;8865;47.636;7.692;2023-08-30T15:00:48;1.67;;;1.40;;
9473;SDS011;8865;47.636;7.692;2023-08-30T15:03:15;1.40;;;1.30;;
9473;SDS011;8865;47.636;7.692;2023-08-30T15:05:41;1.30;;;1.20;;
9473;SDS011;8865;47.636;7.692;2023-08-30T15:08:08;3.65;;;1.48;;
9473;SDS011;8865;47.636;7.692;2023-08-30T15:10:34;1.17;;;1.08;;
9473;SDS011;8865;47.636;7.692;2023-08-30T15:13:00;1.30;;;1.20;;
9473;SDS011;8865;47.636;7.692;2023-08-30T15:15:26;6.78;;;5.93;;
9473;SDS011;8865;47.636;7.692;2023-08-30T15:17:52;2.87;;;2.67;;
9473;SDS011;8865;47.636;7.692;2023-08-30T15:20:18;1.40;;;1.30;;
9473;SDS011;8865;47.636;7.692;2023-08-30T15:22:44;1.50;;;1.40;;
9473;SDS011;8865;47.636;7.692;2023-08-30T15:25:10;2.53;;;1.70;;
9473;SDS011;8865;47.636;7.692;2023-08-30T15:27:36;1.60;;;1.50;;
9473;SDS011;8865;47.636;7.692;2023-08-30T15:30:02;2.03;;;1.57;;
9473;SDS011;8865;47.636;7.692;2023-08-30T15:32:29;2.17;;;1.63;;